Time;durP1;ratioP1;P1;durP2;ratioP2;P2;SDS_P1;SDS_P2;PMS_P1;PMS_P2;Temp;Humidity;BMP_temperature;BMP_pressure;BME280_temperature;BME280_humidity;BME280_pressure;Samples;Min_cycle;Max_cycle;Signal;HPM_P1;HPM_P2
2022/04/29 00:00:24;;;;;;;0.60;0.57;;;9.80;99.90;;;;;;5033717;28;20214;-72
2022/04/29 00:02:51;;;;;;;0.50;0.50;;;9.80;99.90;;;;;;5034529;28;20587;-75
2022/04/29 00:05:19;;;;;;;0.50;0.40;;;9.70;99.90;;;;;;5034057;28;20288;-74
2022/04/29 00:07:46;;;;;;;0.50;0.40;;;9.60;99.90;;;;;;5033953;28;20217;-75
2022/04/29 00:10:16;;;;;;;0.50;0.40;;;9.60;99.90;;;;;;5034065;28;20200;-75
2022/04/29 00:12:46;;;;;;;0.52;0.40;;;9.50;99.90;;;;;;5033820;28;20576;-74
2022/04/29 00:15:16;;;;;;;0.50;0.40;;;9.50;99.90;;;;;;5033932;28;20208;-75
2022/04/29 00:17:43;;;;;;;0.50;0.40;;;9.50;99.90;;;;;;5033719;28;20226;-75
2022/04/29 00:20:11;;;;;;;0.50;0.40;;;9.50;99.90;;;;;;5033243;28;20712;-75
2022/04/29 00:22:38;;;;;;;1.77;1.55;;;9.50;99.90;;;;;;5034061;28;20208;-74
2022/04/29 00:25:07;;;;;;;0.50;0.40;;;9.40;99.90;;;;;;5032997;28;20209;-76
2022/04/29 00:27:33;;;;;;;0.50;0.40;;;9.40;99.90;;;;;;5033635;28;20614;-76
2022/04/29 00:30:02;;;;;;;0.50;0.40;;;9.40;99.90;;;;;;5033523;28;20199;-75
2022/04/29 00:32:29;;;;;;;0.60;0.50;;;9.40;99.90;;;;;;5033354;28;20201;-75
2022/04/29 00:34:55;;;;;;;0.57;0.50;;;9.30;99.90;;;;;;5033507;28;20697;-75
2022/04/29 00:37:22;;;;;;;0.73;0.73;;;9.30;99.90;;;;;;5033116;28;20202;-73
2022/04/29 00:39:49;;;;;;;0.50;0.40;;;9.30;99.90;;;;;;5032806;28;20193;-75
2022/04/29 00:42:19;;;;;;;2.88;2.78;;;9.30;99.90;;;;;;5033286;28;20199;-75
2022/04/29 00:44:46;;;;;;;2.45;2.35;;;9.30;99.90;;;;;;5033571;28;20197;-75
2022/04/29 00:47:16;;;;;;;0.50;0.40;;;9.20;99.90;;;;;;5032888;28;20212;-73
2022/04/29 00:49:44;;;;;;;0.50;0.40;;;9.10;99.90;;;;;;5032831;28;20665;-75
2022/04/29 00:52:13;;;;;;;0.50;0.40;;;9.00;99.90;;;;;;5032820;28;20197;-75
2022/04/29 00:54:42;;;;;;;0.50;0.40;;;9.00;99.90;;;;;;5033505;28;20193;-75
2022/04/29 00:57:11;;;;;;;0.50;0.40;;;8.90;99.90;;;;;;5033097;28;20205;-75
2022/04/29 00:59:45;;;;;;;0.50;0.40;;;8.90;99.90;;;;;;5032460;28;20235;-74
2022/04/29 01:02:13;;;;;;;0.50;0.40;;;8.80;99.90;;;;;;5052296;23;21206;-78
2022/04/29 01:04:48;;;;;;;0.50;0.40;;;8.80;99.90;;;;;;5064935;28;20205;-79
2022/04/29 01:07:15;;;;;;;1.45;1.35;;;8.70;99.90;;;;;;5054240;28;20192;-78
2022/04/29 01:09:42;;;;;;;0.50;0.40;;;8.70;99.90;;;;;;5053234;28;20206;-79
2022/04/29 01:12:09;;;;;;;0.50;0.40;;;8.60;99.90;;;;;;5053715;28;20219;-78
2022/04/29 01:14:36;;;;;;;2.72;0.93;;;8.60;99.90;;;;;;5054259;28;20202;-78
2022/04/29 01:17:03;;;;;;;0.50;0.40;;;8.40;99.90;;;;;;5055171;28;20203;-79
2022/04/29 01:19:30;;;;;;;0.50;0.40;;;8.40;99.90;;;;;;5054650;28;20192;-77
2022/04/29 01:22:00;;;;;;;0.50;0.40;;;8.30;99.90;;;;;;5055656;28;20252;-78
2022/04/29 01:24:27;;;;;;;0.50;0.40;;;8.30;99.90;;;;;;5055235;28;20203;-79
2022/04/29 01:26:54;;;;;;;0.50;0.40;;;8.20;99.90;;;;;;5054703;28;20200;-78
2022/04/29 01:29:22;;;;;;;0.50;0.40;;;8.20;99.90;;;;;;5054116;28;20196;-78
2022/04/29 01:31:50;;;;;;;0.50;0.40;;;8.20;99.90;;;;;;5054884;28;20193;-78
2022/04/29 01:34:17;;;;;;;0.50;0.40;;;8.20;99.90;;;;;;5054845;28;20199;-78
2022/04/29 01:36:44;;;;;;;0.60;0.57;;;8.20;99.90;;;;;;5054876;28;20222;-79
2022/04/29 01:39:12;;;;;;;0.68;0.68;;;8.20;99.90;;;;;;5054272;28;20224;-78
2022/04/29 01:41:39;;;;;;;0.50;0.40;;;8.20;99.90;;;;;;5055038;28;20687;-78
2022/04/29 01:44:05;;;;;;;0.50;0.40;;;8.20;99.90;;;;;;5055549;28;20215;-78
2022/04/29 01:46:32;;;;;;;0.50;0.40;;;8.20;99.90;;;;;;5054988;28;20683;-78
2022/04/29 01:48:59;;;;;;;0.50;0.40;;;8.20;99.90;;;;;;5054228;28;20199;-79
2022/04/29 01:51:25;;;;;;;0.80;0.77;;;8.20;99.90;;;;;;5054224;28;20198;-77
2022/04/29 01:53:53;;;;;;;0.70;0.70;;;8.20;99.90;;;;;;5053979;28;20226;-78
2022/04/29 01:56:32;;;;;;;1.23;1.13;;;8.30;99.90;;;;;;5053426;28;20195;-79
2022/04/29 01:58:59;;;;;;;0.50;0.40;;;8.20;99.90;;;;;;5053982;28;20189;-78
2022/04/29 02:01:27;;;;;;;0.50;0.40;;;8.30;99.90;;;;;;5054551;28;20572;-79
2022/04/29 02:03:53;;;;;;;0.50;0.45;;;8.30;99.90;;;;;;5054289;28;20225;-78
2022/04/29 02:06:20;;;;;;;0.50;0.40;;;8.20;99.90;;;;;;5054167;28;20198;-78
2022/04/29 02:08:48;;;;;;;0.50;0.40;;;8.10;99.90;;;;;;5053938;28;20195;-78
2022/04/29 02:11:17;;;;;;;0.50;0.40;;;8.10;99.90;;;;;;5054754;28;20731;-78
2022/04/29 02:13:45;;;;;;;0.50;0.40;;;8.10;99.90;;;;;;5054169;28;20269;-77
2022/04/29 02:16:11;;;;;;;0.50;0.40;;;8.10;99.90;;;;;;5054994;28;20195;-78
2022/04/29 02:18:38;;;;;;;0.50;0.40;;;8.10;99.90;;;;;;5053538;28;20196;-77
2022/04/29 02:21:05;;;;;;;0.50;0.40;;;8.00;99.90;;;;;;5053542;28;20219;-77
2022/04/29 02:23:32;;;;;;;0.50;0.40;;;8.00;99.90;;;;;;5054094;28;20217;-78
2022/04/29 02:25:59;;;;;;;0.50;0.40;;;8.00;99.90;;;;;;5054212;28;20206;-78
2022/04/29 02:28:27;;;;;;;0.50;0.40;;;8.00;99.90;;;;;;5054499;28;20630;-78
2022/04/29 02:30:55;;;;;;;0.50;0.40;;;7.90;99.90;;;;;;5054483;28;20324;-78
2022/04/29 02:33:22;;;;;;;0.50;0.40;;;7.90;99.90;;;;;;5053595;28;20224;-78
2022/04/29 02:35:49;;;;;;;0.50;0.40;;;7.90;99.90;;;;;;5054004;28;20198;-78
2022/04/29 02:38:15;;;;;;;0.50;0.40;;;7.90;99.90;;;;;;5053891;28;20207;-78
2022/04/29 02:40:43;;;;;;;0.50;0.50;;;7.90;99.90;;;;;;5054351;28;20229;-79
2022/04/29 02:43:09;;;;;;;0.50;0.47;;;7.90;99.90;;;;;;5054503;28;20225;-77
2022/04/29 02:45:36;;;;;;;0.50;0.40;;;7.90;99.90;;;;;;5053992;28;20210;-77
2022/04/29 02:48:05;;;;;;;0.50;0.40;;;7.90;99.90;;;;;;5054532;28;20199;-77
2022/04/29 02:50:31;;;;;;;0.50;0.40;;;7.90;99.90;;;;;;5060883;28;20200;-77
2022/04/29 02:52:58;;;;;;;0.50;0.40;;;7.80;99.90;;;;;;5060334;28;20214;-78
2022/04/29 02:55:25;;;;;;;0.50;0.40;;;7.80;99.90;;;;;;5059840;28;20202;-78
2022/04/29 02:57:51;;;;;;;0.50;0.40;;;7.70;99.90;;;;;;5060191;28;20206;-77
2022/04/29 03:00:19;;;;;;;0.52;0.50;;;7.70;99.90;;;;;;5060386;28;20205;-77
2022/04/29 03:02:45;;;;;;;0.50;0.40;;;7.70;99.90;;;;;;5060545;28;20256;-79
2022/04/29 03:05:13;;;;;;;0.50;0.40;;;7.70;99.90;;;;;;5060897;28;20203;-77
2022/04/29 03:07:40;;;;;;;1.35;1.35;;;7.60;99.90;;;;;;5060101;28;20195;-77
2022/04/29 03:10:07;;;;;;;0.50;0.40;;;7.60;99.90;;;;;;5060540;28;20202;-77
2022/04/29 03:12:34;;;;;;;0.52;0.45;;;7.60;99.90;;;;;;5060273;28;20214;-79
2022/04/29 03:20:27;;;;;;;0.50;0.40;;;7.60;99.90;;;;;;5072690;28;20197;-80
2022/04/29 03:22:54;;;;;;;0.50;0.40;;;7.60;99.90;;;;;;5062196;28;20218;-79
2022/04/29 03:25:21;;;;;;;0.50;0.40;;;7.70;99.90;;;;;;5058201;28;20202;-78
2022/04/29 03:27:47;;;;;;;0.60;0.50;;;7.70;99.90;;;;;;5058141;28;20194;-79
2022/04/29 03:30:14;;;;;;;0.60;0.60;;;7.70;99.90;;;;;;5058631;28;20199;-76
2022/04/29 03:32:41;;;;;;;0.50;0.40;;;7.60;99.90;;;;;;5058394;28;20227;-78
2022/04/29 03:35:08;;;;;;;0.50;0.40;;;7.60;99.90;;;;;;5058821;28;20313;-78
2022/04/29 03:37:36;;;;;;;0.50;0.40;;;7.50;99.90;;;;;;5058523;28;20198;-77
2022/04/29 03:40:03;;;;;;;0.50;0.40;;;7.50;99.90;;;;;;5058422;28;20199;-76
2022/04/29 03:42:30;;;;;;;0.50;0.40;;;7.50;99.90;;;;;;5058743;28;20225;-79
2022/04/29 03:44:56;;;;;;;0.50;0.40;;;7.60;99.90;;;;;;5058357;28;20195;-77
2022/04/29 03:47:23;;;;;;;0.50;0.40;;;7.50;99.90;;;;;;5058850;28;20205;-77
2022/04/29 03:49:50;;;;;;;0.50;0.40;;;7.50;99.90;;;;;;5059266;28;20199;-77
2022/04/29 03:52:17;;;;;;;1.88;1.77;;;7.40;99.90;;;;;;5058956;28;20595;-78
2022/04/29 03:54:45;;;;;;;0.75;0.75;;;7.50;99.90;;;;;;5059044;28;20202;-79
2022/04/29 03:57:11;;;;;;;0.50;0.40;;;7.40;99.90;;;;;;5058972;28;20194;-78
2022/04/29 03:59:38;;;;;;;1.92;0.77;;;7.40;99.90;;;;;;5056461;28;20726;-76
2022/04/29 04:02:05;;;;;;;0.88;0.88;;;7.30;99.90;;;;;;5054927;28;20222;-79
2022/04/29 04:04:32;;;;;;;0.50;0.40;;;7.40;99.90;;;;;;5054715;28;20209;-77
2022/04/29 04:07:01;;;;;;;0.85;0.50;;;7.30;99.90;;;;;;5054816;28;20203;-77
2022/04/29 04:09:28;;;;;;;0.50;0.40;;;7.30;99.90;;;;;;5054316;28;20672;-78
2022/04/29 04:11:56;;;;;;;0.50;0.40;;;7.20;99.90;;;;;;5053895;28;20211;-77
2022/04/29 04:14:23;;;;;;;0.50;0.40;;;7.10;99.90;;;;;;5053534;28;20575;-78
2022/04/29 04:16:49;;;;;;;12.00;9.70;;;7.10;99.90;;;;;;5053752;28;20198;-77
2022/04/29 04:19:17;;;;;;;0.50;0.40;;;7.20;99.90;;;;;;5053342;28;20195;-77
2022/04/29 04:21:44;;;;;;;0.50;0.40;;;7.20;99.90;;;;;;5053918;28;20195;-77
2022/04/29 04:24:11;;;;;;;0.50;0.50;;;7.20;99.90;;;;;;5053821;28;20194;-77
2022/04/29 04:26:38;;;;;;;0.50;0.40;;;7.20;99.90;;;;;;5053692;28;20197;-77
2022/04/29 04:29:06;;;;;;;0.50;0.40;;;7.10;99.90;;;;;;5053587;28;20206;-78
2022/04/29 04:31:33;;;;;;;0.50;0.40;;;7.20;99.90;;;;;;5053305;28;20215;-78
2022/04/29 04:34:49;;;;;;;0.50;0.40;;;7.20;99.90;;;;;;5054276;28;20222;-77
2022/04/29 04:36:50;;;;;;;0.50;0.40;;;7.20;99.90;;;;;;5053647;28;20682;-77
2022/04/29 04:39:16;;;;;;;0.50;0.40;;;7.20;99.90;;;;;;5053067;28;20664;-76
2022/04/29 04:41:43;;;;;;;0.50;0.40;;;7.20;99.90;;;;;;5053409;28;20221;-76
2022/04/29 04:44:11;;;;;;;0.50;0.40;;;7.20;99.90;;;;;;5053843;28;20190;-77
2022/04/29 04:46:38;;;;;;;0.50;0.40;;;7.30;99.90;;;;;;5053920;28;20198;-77
2022/04/29 04:49:04;;;;;;;0.50;0.40;;;7.40;99.90;;;;;;5053218;28;20198;-77
2022/04/29 04:51:31;;;;;;;0.50;0.40;;;7.40;99.90;;;;;;5053767;28;20215;-77
2022/04/29 04:53:58;;;;;;;0.50;0.40;;;7.40;99.90;;;;;;5053713;28;20217;-76
2022/04/29 04:56:26;;;;;;;0.50;0.40;;;7.50;99.90;;;;;;5053384;28;20228;-78
2022/04/29 04:58:52;;;;;;;0.70;0.70;;;7.50;99.90;;;;;;5053791;28;20256;-77
2022/04/29 05:01:20;;;;;;;0.50;0.40;;;7.60;99.90;;;;;;5053667;28;20672;-76
2022/04/29 05:03:47;;;;;;;0.50;0.40;;;7.60;99.90;;;;;;5053462;28;20226;-74
2022/04/29 05:06:14;;;;;;;0.50;0.40;;;7.60;99.90;;;;;;5052941;28;20198;-75
2022/04/29 05:08:41;;;;;;;0.50;0.40;;;7.60;99.90;;;;;;5052813;28;20207;-76
2022/04/29 05:11:07;;;;;;;1.58;0.65;;;7.60;99.90;;;;;;5052890;28;20691;-76
2022/04/29 05:13:34;;;;;;;0.50;0.40;;;7.60;99.90;;;;;;5052591;28;20221;-77
2022/04/29 05:16:01;;;;;;;2.80;1.92;;;7.60;99.90;;;;;;5053062;28;20194;-76
2022/04/29 05:18:29;;;;;;;0.80;0.80;;;7.60;99.90;;;;;;5053268;28;20194;-76
2022/04/29 05:20:55;;;;;;;1.50;1.15;;;7.60;99.90;;;;;;5053051;28;20202;-76
2022/04/29 05:23:22;;;;;;;0.50;0.50;;;7.70;99.90;;;;;;5053190;28;20237;-76
2022/04/29 05:25:49;;;;;;;0.50;0.40;;;7.70;99.90;;;;;;5053841;28;20201;-76
2022/04/29 05:28:16;;;;;;;0.70;0.68;;;7.70;99.90;;;;;;5052901;28;20194;-75
2022/04/29 05:30:43;;;;;;;0.60;0.60;;;7.70;99.90;;;;;;5053056;28;20199;-76
2022/04/29 05:33:11;;;;;;;11.52;4.55;;;7.80;99.90;;;;;;5052988;28;20219;-78
2022/04/29 05:35:40;;;;;;;0.60;0.60;;;7.90;99.90;;;;;;5053479;28;20209;-76
2022/04/29 05:38:07;;;;;;;0.50;0.40;;;7.90;99.90;;;;;;5053140;28;20218;-75
2022/04/29 05:43:18;;;;;;;0.50;0.40;;;8.00;99.90;;;;;;5052594;28;20209;-75
2022/04/29 05:45:44;;;;;;;0.50;0.40;;;8.10;99.90;;;;;;5052582;28;20195;-75
2022/04/29 05:48:11;;;;;;;0.50;0.40;;;8.30;99.90;;;;;;5052739;28;20194;-76
2022/04/29 05:50:40;;;;;;;0.50;0.40;;;8.50;99.90;;;;;;5052858;28;20245;-77
2022/04/29 05:53:06;;;;;;;0.50;0.40;;;8.70;99.90;;;;;;5055088;28;20666;-77
2022/04/29 05:55:33;;;;;;;0.65;0.65;;;8.90;99.90;;;;;;5052096;28;20206;-76
2022/04/29 05:58:00;;;;;;;0.50;0.40;;;9.10;99.90;;;;;;5052050;28;20199;-77
2022/04/29 06:00:27;;;;;;;0.95;0.95;;;9.40;99.90;;;;;;5051488;28;20602;-77
2022/04/29 06:02:54;;;;;;;0.50;0.40;;;9.80;99.90;;;;;;5052044;28;20278;-77
2022/04/29 06:05:20;;;;;;;0.50;0.40;;;10.70;99.90;;;;;;5052066;28;20212;-77
2022/04/29 06:07:48;;;;;;;0.50;0.40;;;11.30;99.90;;;;;;5051977;28;20260;-79
2022/04/29 06:10:15;;;;;;;0.50;0.40;;;12.00;99.90;;;;;;5051508;28;20233;-76
2022/04/29 06:12:43;;;;;;;0.50;0.40;;;12.40;99.90;;;;;;5051545;28;20222;-78
2022/04/29 06:15:14;;;;;;;0.55;0.52;;;12.40;99.90;;;;;;5051914;28;20199;-77
2022/04/29 06:17:41;;;;;;;0.50;0.40;;;12.40;99.90;;;;;;5051504;28;20197;-78
2022/04/29 06:20:09;;;;;;;0.50;0.40;;;12.30;99.90;;;;;;5051371;28;20213;-77
2022/04/29 06:22:42;;;;;;;4.47;4.25;;;12.70;99.90;;;;;;5051397;28;20219;-77
2022/04/29 06:25:10;;;;;;;0.65;0.65;;;13.00;99.90;;;;;;5051806;28;20213;-77
2022/04/29 06:27:37;;;;;;;0.50;0.40;;;13.00;99.90;;;;;;5051587;28;20198;-77
2022/04/29 06:30:04;;;;;;;0.50;0.40;;;13.10;99.90;;;;;;5051320;28;20193;-75
2022/04/29 06:32:31;;;;;;;1.83;1.10;;;13.10;99.90;;;;;;5051652;28;20222;-78
2022/04/29 06:34:57;;;;;;;0.50;0.50;;;13.20;99.90;;;;;;5052019;28;20678;-77
2022/04/29 06:37:24;;;;;;;0.60;0.40;;;12.80;99.90;;;;;;5051503;28;20194;-76
2022/04/29 06:39:51;;;;;;;0.50;0.40;;;12.50;99.90;;;;;;5051243;28;20199;-77
2022/04/29 06:42:19;;;;;;;0.50;0.50;;;12.30;99.90;;;;;;5051343;28;20215;-77
2022/04/29 06:44:46;;;;;;;0.50;0.40;;;12.20;99.90;;;;;;5051454;28;20663;-77
2022/04/29 06:47:13;;;;;;;0.50;0.50;;;12.20;99.90;;;;;;5051224;28;20209;-76
2022/04/29 06:49:39;;;;;;;0.50;0.40;;;12.10;99.90;;;;;;5050907;28;20194;-77
2022/04/29 06:52:06;;;;;;;0.50;0.40;;;11.90;99.90;;;;;;5050876;28;20232;-78
2022/04/29 06:54:33;;;;;;;0.50;0.40;;;11.90;99.90;;;;;;5051140;28;20197;-78
2022/04/29 06:57:00;;;;;;;0.57;0.55;;;12.00;99.90;;;;;;5051565;28;20206;-77
2022/04/29 06:59:28;;;;;;;7.22;3.63;;;12.20;99.90;;;;;;5051521;28;20195;-78
2022/04/29 07:01:55;;;;;;;0.50;0.40;;;12.20;99.90;;;;;;5050939;28;20195;-77
2022/04/29 07:04:25;;;;;;;0.50;0.40;;;12.60;99.90;;;;;;5052514;28;20191;-77
2022/04/29 07:06:54;;;;;;;1.40;1.33;;;13.20;99.90;;;;;;5050618;28;20191;-76
2022/04/29 07:09:20;;;;;;;0.50;0.40;;;14.10;99.90;;;;;;5050919;28;20347;-76
2022/04/29 07:11:47;;;;;;;0.50;0.40;;;15.30;99.90;;;;;;5050971;28;20444;-78
2022/04/29 07:14:14;;;;;;;0.80;0.80;;;16.30;99.90;;;;;;5051503;28;20441;-76
2022/04/29 07:16:42;;;;;;;0.50;0.30;;;17.50;99.90;;;;;;5051543;28;20440;-76
2022/04/29 07:19:09;;;;;;;0.50;0.30;;;18.40;99.90;;;;;;5052274;28;20440;-78
2022/04/29 07:21:35;;;;;;;0.50;0.30;;;18.70;97.80;;;;;;5053325;28;20440;-77
2022/04/29 07:24:02;;;;;;;0.50;0.30;;;18.90;95.20;;;;;;5053111;28;20461;-78
2022/04/29 07:26:29;;;;;;;0.50;0.37;;;18.80;92.00;;;;;;5052942;28;20451;-78
2022/04/29 07:28:56;;;;;;;0.50;0.40;;;19.10;90.60;;;;;;5052463;28;20452;-76
2022/04/29 07:31:22;;;;;;;0.50;0.40;;;19.30;88.30;;;;;;5052505;28;20449;-77
2022/04/29 07:33:50;;;;;;;0.60;0.47;;;19.00;88.00;;;;;;5052194;28;20835;-75
2022/04/29 07:41:45;;;;;;;0.73;0.70;;;18.40;89.40;;;;;;5074085;28;20458;-77
2022/04/29 07:44:12;;;;;;;0.90;0.40;;;17.80;91.30;;;;;;5074581;28;20432;-77
2022/04/29 07:46:42;;;;;;;0.50;0.30;;;17.10;94.30;;;;;;5074652;28;20925;-77
2022/04/29 07:49:10;;;;;;;0.50;0.40;;;16.50;99.90;;;;;;5074360;28;20443;-77
2022/04/29 07:51:38;;;;;;;0.80;0.80;;;16.50;99.90;;;;;;5074647;28;20440;-77
2022/04/29 07:54:05;;;;;;;0.50;0.50;;;16.20;99.90;;;;;;5074061;28;20479;-77
2022/04/29 07:56:31;;;;;;;0.50;0.40;;;15.90;99.90;;;;;;5074774;28;20444;-77
2022/04/29 07:58:58;;;;;;;0.50;0.40;;;15.90;99.90;;;;;;5073995;28;20446;-77
2022/04/29 08:01:25;;;;;;;0.60;0.40;;;15.80;99.90;;;;;;5075080;28;20437;-78
2022/04/29 08:03:52;;;;;;;0.50;0.30;;;15.60;99.90;;;;;;5074645;28;20552;-78
2022/04/29 08:06:21;;;;;;;0.50;0.40;;;15.40;99.90;;;;;;5074952;28;20888;-76
2022/04/29 08:08:49;;;;;;;0.50;0.40;;;15.10;99.90;;;;;;5074231;28;20443;-78
2022/04/29 08:11:17;;;;;;;0.70;0.70;;;15.00;99.90;;;;;;5074875;28;20440;-77
2022/04/29 08:13:44;;;;;;;0.50;0.40;;;14.80;99.90;;;;;;5074264;28;20498;-77
2022/04/29 08:16:11;;;;;;;0.50;0.40;;;14.70;99.90;;;;;;5075168;28;20535;-80
2022/04/29 08:18:38;;;;;;;0.50;0.40;;;14.50;99.90;;;;;;5075381;28;20440;-77
2022/04/29 08:21:05;;;;;;;1.10;1.07;;;14.30;99.90;;;;;;5076419;28;20874;-79
2022/04/29 08:23:33;;;;;;;0.50;0.40;;;14.20;99.90;;;;;;5075854;28;20456;-79
2022/04/29 08:26:00;;;;;;;0.50;0.40;;;14.00;99.90;;;;;;5077189;28;20444;-78
2022/04/29 08:28:28;;;;;;;0.50;0.40;;;13.90;99.90;;;;;;5076734;28;20440;-78
2022/04/29 08:30:54;;;;;;;0.50;0.40;;;13.90;99.90;;;;;;5074845;28;20824;-78
2022/04/29 08:33:22;;;;;;;0.50;0.40;;;14.00;99.90;;;;;;5073345;28;20586;-76
2022/04/29 08:35:49;;;;;;;0.50;0.40;;;14.00;99.90;;;;;;5073469;28;20443;-77
2022/04/29 08:38:16;;;;;;;0.50;0.40;;;14.10;99.90;;;;;;5073311;28;20436;-77
2022/04/29 08:40:46;;;;;;;0.50;0.30;;;14.30;99.90;;;;;;5073966;28;20894;-77
2022/04/29 08:43:14;;;;;;;0.50;0.30;;;14.40;99.90;;;;;;5074211;28;20461;-78
2022/04/29 08:45:42;;;;;;;0.50;0.40;;;14.50;99.90;;;;;;5074270;28;20524;-78
2022/04/29 08:48:09;;;;;;;0.70;0.60;;;14.60;99.90;;;;;;5075393;28;20579;-78
2022/04/29 08:50:36;;;;;;;0.70;0.70;;;14.60;99.90;;;;;;5075287;28;20441;-78
2022/04/29 08:53:03;;;;;;;0.50;0.50;;;14.70;99.90;;;;;;5075122;28;20491;-78
2022/04/29 09:01:06;;;;;;;1.60;0.73;;;16.10;99.90;;;;;;5075675;28;20922;-78
2022/04/29 09:03:32;;;;;;;0.50;0.40;;;16.50;99.90;;;;;;5074106;28;20526;-79
2022/04/29 09:06:00;;;;;;;0.50;0.40;;;17.00;99.90;;;;;;5075061;28;20447;-78
2022/04/29 09:08:27;;;;;;;0.50;0.40;;;18.00;99.90;;;;;;5074173;28;20440;-77
2022/04/29 09:10:56;;;;;;;0.50;0.30;;;18.90;99.90;;;;;;5074574;28;20472;-78
2022/04/29 09:13:26;;;;;;;1.00;0.80;;;19.80;99.90;;;;;;5074213;28;20616;-78
2022/04/29 09:15:57;;;;;;;0.50;0.30;;;20.60;94.00;;;;;;5073664;28;20499;-77
2022/04/29 09:18:32;;;;;;;0.50;0.30;;;21.20;89.50;;;;;;5073104;28;21045;-78
2022/04/29 09:20:59;;;;;;;1.13;1.00;;;21.50;84.50;;;;;;5074186;28;20482;-77
2022/04/29 09:23:28;;;;;;;0.50;0.30;;;21.40;80.70;;;;;;5074202;28;20456;-78
2022/04/29 09:25:56;;;;;;;0.50;0.40;;;21.10;76.70;;;;;;5073913;28;20870;-77
2022/04/29 09:28:26;;;;;;;0.50;0.40;;;21.00;78.30;;;;;;5073856;28;20470;-78
2022/04/29 09:30:56;;;;;;;1.13;0.70;;;20.70;81.50;;;;;;5073749;28;20435;-78
2022/04/29 09:33:24;;;;;;;0.50;0.30;;;20.40;83.50;;;;;;5074501;28;20530;-77
2022/04/29 09:35:51;;;;;;;0.50;0.30;;;20.20;82.90;;;;;;5074928;28;20440;-77
2022/04/29 09:41:03;;;;;;;0.50;0.30;;;20.20;84.40;;;;;;5074402;28;20450;-77
2022/04/29 09:43:42;;;;;;;0.50;0.30;;;20.40;83.50;;;;;;5074197;28;20452;-78
2022/04/29 09:46:10;;;;;;;0.50;0.40;;;20.20;82.30;;;;;;5074404;28;20502;-78
2022/04/29 09:48:55;;;;;;;0.50;0.40;;;19.80;85.10;;;;;;5075028;28;20463;-79
2022/04/29 09:51:47;;;;;;;0.50;0.30;;;19.50;87.30;;;;;;5090408;28;20423;-79
2022/04/29 09:54:20;;;;;;;0.50;0.40;;;19.80;89.50;;;;;;5089631;28;20487;-79
2022/04/29 09:57:02;;;;;;;0.50;0.30;;;19.60;89.60;;;;;;5088828;28;20428;-79
2022/04/29 09:59:33;;;;;;;0.50;0.30;;;19.80;89.30;;;;;;5077888;28;20441;-78
2022/04/29 10:02:00;;;;;;;0.50;0.37;;;20.20;91.10;;;;;;5073008;28;20828;-79
2022/04/29 10:04:31;;;;;;;0.50;0.30;;;20.10;90.00;;;;;;5072990;28;20447;-78
2022/04/29 10:06:58;;;;;;;0.50;0.30;;;20.50;89.20;;;;;;5072321;28;20455;-79
2022/04/29 10:09:32;;;;;;;0.50;0.30;;;20.70;87.30;;;;;;5073311;28;20440;-78
2022/04/29 10:12:00;;;;;;;1.53;0.73;;;20.80;84.30;;;;;;5073545;28;20420;-78
2022/04/29 10:14:29;;;;;;;0.50;0.30;;;20.90;80.90;;;;;;5071268;28;20472;-77
2022/04/29 10:22:37;;;;;;;0.50;0.30;;;20.90;79.80;;;;;;5073415;28;20517;-76
2022/04/29 10:25:07;;;;;;;0.50;0.40;;;21.00;77.10;;;;;;5071851;28;20698;-77
2022/04/29 10:27:37;;;;;;;0.50;0.40;;;21.30;81.80;;;;;;5071768;28;20493;-77
2022/04/29 10:30:05;;;;;;;2.23;2.13;;;22.00;80.90;;;;;;5070948;28;20451;-78
2022/04/29 10:32:59;;;;;;;0.50;0.40;;;21.80;75.40;;;;;;5071390;28;20460;-77
2022/04/29 10:35:50;;;;;;;0.50;0.30;;;21.70;77.00;;;;;;5071515;28;20432;-77
2022/04/29 10:38:18;;;;;;;0.77;0.57;;;22.40;75.50;;;;;;5071023;28;20505;-77
2022/04/29 10:40:47;;;;;;;0.50;0.33;;;22.60;77.20;;;;;;5072025;28;20452;-78
2022/04/29 10:43:15;;;;;;;0.50;0.30;;;23.00;76.10;;;;;;5071925;28;20468;-77
2022/04/29 10:46:23;;;;;;;0.50;0.30;;;22.90;74.50;;;;;;5072146;28;20533;-77
2022/04/29 10:48:52;;;;;;;0.50;0.50;;;22.70;73.00;;;;;;5052689;28;20790;-77
2022/04/29 10:51:21;;;;;;;1.57;0.93;;;22.70;72.80;;;;;;5071774;28;20786;-78
2022/04/29 10:53:50;;;;;;;0.50;0.40;;;22.30;73.10;;;;;;5071523;28;20502;-77
2022/04/29 10:56:39;;;;;;;0.50;0.30;;;21.60;73.80;;;;;;5072513;28;20440;-78
2022/04/29 10:59:15;;;;;;;0.50;0.30;;;21.80;77.10;;;;;;5071627;28;20416;-76
2022/04/29 11:01:47;;;;;;;0.50;0.30;;;22.40;78.00;;;;;;5072339;28;20464;-78
2022/04/29 11:04:48;;;;;;;0.50;0.30;;;22.30;74.50;;;;;;5071425;28;20458;-77
2022/04/29 11:07:43;;;;;;;0.50;0.40;;;22.90;74.70;;;;;;5071900;28;20466;-77
2022/04/29 11:10:14;;;;;;;0.50;0.30;;;22.40;70.50;;;;;;5073991;28;20936;-77
2022/04/29 11:12:43;;;;;;;0.93;0.83;;;22.30;72.50;;;;;;5075768;28;20458;-77
2022/04/29 11:15:13;;;;;;;0.90;0.60;;;22.40;70.30;;;;;;5075407;28;20490;-77
2022/04/29 11:17:41;;;;;;;0.50;0.40;;;22.30;71.50;;;;;;5075306;28;20817;-77
2022/04/29 11:20:20;;;;;;;0.50;0.40;;;22.70;70.20;;;;;;5075605;28;20444;-77
2022/04/29 11:25:50;;;;;;;0.90;0.90;;;22.80;68.00;;;;;;5075470;28;20419;-78
2022/04/29 11:28:17;;;;;;;0.50;0.30;;;22.40;66.50;;;;;;5075327;28;20436;-77
2022/04/29 11:30:44;;;;;;;0.50;0.30;;;22.70;65.80;;;;;;5075773;28;20435;-77
2022/04/29 11:33:11;;;;;;;0.50;0.30;;;23.20;63.30;;;;;;5075267;28;20472;-78
2022/04/29 11:35:39;;;;;;;0.60;0.60;;;23.30;64.40;;;;;;5075403;28;20440;-78
2022/04/29 11:38:09;;;;;;;0.50;0.40;;;23.10;61.30;;;;;;5075395;28;20483;-77
2022/04/29 11:40:38;;;;;;;0.50;0.30;;;23.50;63.30;;;;;;5075362;28;20434;-77
2022/04/29 11:43:08;;;;;;;2.43;2.10;;;24.20;65.10;;;;;;5075230;28;20492;-77
2022/04/29 11:45:36;;;;;;;0.60;0.40;;;24.90;61.20;;;;;;5074826;28;20867;-76
2022/04/29 11:48:04;;;;;;;0.50;0.30;;;24.40;58.90;;;;;;5075047;28;20432;-77
2022/04/29 11:50:32;;;;;;;0.50;0.30;;;24.40;58.50;;;;;;5075214;28;20436;-76
2022/04/29 11:53:09;;;;;;;0.50;0.30;;;24.00;58.90;;;;;;5075392;28;21029;-77
2022/04/29 11:55:36;;;;;;;0.77;0.50;;;23.60;59.20;;;;;;5074650;28;20416;-76
2022/04/29 11:58:04;;;;;;;0.50;0.30;;;23.60;60.10;;;;;;5074553;28;20432;-76
2022/04/29 12:00:34;;;;;;;0.50;0.30;;;23.40;59.40;;;;;;5074149;28;20812;-77
2022/04/29 12:03:03;;;;;;;0.50;0.40;;;23.30;59.80;;;;;;5073938;28;20500;-76
2022/04/29 12:05:33;;;;;;;0.50;0.30;;;22.70;59.40;;;;;;5074250;28;20419;-76
2022/04/29 12:08:01;;;;;;;0.50;0.30;;;22.00;61.00;;;;;;5073852;28;20437;-76
2022/04/29 12:10:31;;;;;;;0.50;0.50;;;21.30;60.80;;;;;;5074746;28;20456;-77
2022/04/29 12:12:58;;;;;;;0.50;0.30;;;21.30;63.00;;;;;;5074693;28;20456;-76
2022/04/29 12:15:27;;;;;;;0.50;0.40;;;21.40;63.80;;;;;;5074691;28;20483;-76
2022/04/29 12:17:58;;;;;;;0.50;0.30;;;21.40;64.10;;;;;;5074610;28;20467;-77
2022/04/29 12:20:26;;;;;;;0.50;0.30;;;21.50;63.70;;;;;;5074636;28;20476;-76
2022/04/29 12:22:53;;;;;;;0.50;0.30;;;21.10;63.20;;;;;;5073624;28;20470;-76
2022/04/29 12:25:26;;;;;;;0.50;0.30;;;21.10;64.60;;;;;;5074056;28;20439;-77
2022/04/29 12:28:26;;;;;;;0.50;0.30;;;21.10;64.90;;;;;;5073724;28;20448;-76
2022/04/29 12:36:28;;;;;;;0.50;0.40;;;21.00;65.30;;;;;;5075490;28;20420;-76
2022/04/29 12:39:05;;;;;;;0.50;0.40;;;20.80;66.40;;;;;;5073691;28;20459;-77
2022/04/29 12:41:32;;;;;;;0.50;0.40;;;20.30;65.60;;;;;;5073699;28;20455;-77
2022/04/29 12:44:10;;;;;;;0.50;0.40;;;20.20;65.40;;;;;;5073919;28;20456;-77
2022/04/29 12:46:37;;;;;;;0.50;0.30;;;20.10;68.20;;;;;;5073963;28;20446;-77
2022/04/29 12:49:05;;;;;;;0.50;0.30;;;20.10;67.90;;;;;;5074030;28;20443;-77
2022/04/29 12:51:33;;;;;;;0.50;0.30;;;20.20;67.20;;;;;;5074366;28;20446;-78
2022/04/29 12:54:01;;;;;;;0.50;0.30;;;20.40;67.80;;;;;;5074485;28;20559;-77
2022/04/29 12:56:32;;;;;;;1.03;0.87;;;20.40;68.50;;;;;;5073993;28;20444;-77
2022/04/29 12:59:03;;;;;;;0.50;0.40;;;20.50;69.50;;;;;;5074244;28;20498;-76
2022/04/29 13:01:38;;;;;;;0.50;0.40;;;20.70;69.40;;;;;;5074229;28;20432;-77
2022/04/29 13:04:06;;;;;;;0.50;0.40;;;20.80;68.10;;;;;;5074783;28;20968;-77
2022/04/29 13:06:32;;;;;;;0.50;0.40;;;20.60;67.60;;;;;;5074126;28;20817;-78
2022/04/29 13:09:00;;;;;;;0.80;0.73;;;19.90;67.50;;;;;;5073365;28;20543;-77
2022/04/29 13:11:26;;;;;;;0.50;0.40;;;19.80;68.30;;;;;;5073636;28;20440;-77
2022/04/29 13:13:54;;;;;;;0.50;0.40;;;19.70;72.10;;;;;;5073320;28;20472;-76
2022/04/29 13:16:22;;;;;;;0.50;0.30;;;19.70;71.30;;;;;;5074126;28;20440;-77
2022/04/29 13:18:51;;;;;;;0.50;0.30;;;19.80;70.90;;;;;;5073618;28;20437;-77
2022/04/29 13:21:18;;;;;;;0.50;0.37;;;19.60;71.90;;;;;;5073336;28;20443;-78
2022/04/29 13:23:46;;;;;;;0.50;0.40;;;19.40;72.90;;;;;;5073193;28;20464;-78
2022/04/29 13:26:15;;;;;;;0.50;0.40;;;19.40;74.90;;;;;;5073024;28;20436;-77
2022/04/29 13:28:43;;;;;;;0.60;0.50;;;19.10;74.10;;;;;;5073391;28;20440;-77
2022/04/29 13:31:10;;;;;;;0.50;0.40;;;19.00;74.80;;;;;;5073640;28;20931;-77
2022/04/29 13:33:37;;;;;;;0.50;0.30;;;18.80;74.70;;;;;;5073376;28;20475;-77